sensor_id;sensor_type;location;lat;lon;timestamp;P1;durP1;ratioP1;P2;durP2;ratioP2
14116;SDS011;7137;51.436;6.544;2023-07-16T00:00:19;6.07;;;2.30;;
14116;SDS011;7137;51.436;6.544;2023-07-16T00:03:21;4.17;;;2.20;;
14116;SDS011;7137;51.436;6.544;2023-07-16T00:06:23;5.97;;;2.43;;
14116;SDS011;7137;51.436;6.544;2023-07-16T00:09:24;4.53;;;2.30;;
14116;SDS011;7137;51.436;6.544;2023-07-16T00:12:27;4.93;;;2.40;;
14116;SDS011;7137;51.436;6.544;2023-07-16T00:15:29;6.67;;;2.50;;
14116;SDS011;7137;51.436;6.544;2023-07-16T00:18:30;5.00;;;2.27;;
14116;SDS011;7137;51.436;6.544;2023-07-16T00:21:32;6.13;;;2.37;;
14116;SDS011;7137;51.436;6.544;2023-07-16T00:24:33;4.67;;;2.17;;
14116;SDS011;7137;51.436;6.544;2023-07-16T00:27:36;5.17;;;2.30;;
14116;SDS011;7137;51.436;6.544;2023-07-16T00:30:38;4.20;;;2.07;;
14116;SDS011;7137;51.436;6.544;2023-07-16T00:33:40;4.10;;;1.97;;
14116;SDS011;7137;51.436;6.544;2023-07-16T00:36:41;4.27;;;2.50;;
14116;SDS011;7137;51.436;6.544;2023-07-16T00:39:43;4.03;;;2.20;;
14116;SDS011;7137;51.436;6.544;2023-07-16T00:42:46;5.83;;;2.50;;
14116;SDS011;7137;51.436;6.544;2023-07-16T00:45:48;5.63;;;2.40;;
14116;SDS011;7137;51.436;6.544;2023-07-16T00:48:50;4.97;;;2.50;;
14116;SDS011;7137;51.436;6.544;2023-07-16T00:51:52;6.40;;;2.60;;
14116;SDS011;7137;51.436;6.544;2023-07-16T00:54:54;5.30;;;2.43;;
14116;SDS011;7137;51.436;6.544;2023-07-16T00:57:57;4.97;;;2.30;;
14116;SDS011;7137;51.436;6.544;2023-07-16T01:01:05;6.07;;;2.20;;
14116;SDS011;7137;51.436;6.544;2023-07-16T01:04:06;5.90;;;2.50;;
14116;SDS011;7137;51.436;6.544;2023-07-16T01:07:08;5.37;;;2.50;;
14116;SDS011;7137;51.436;6.544;2023-07-16T01:10:12;4.93;;;2.30;;
14116;SDS011;7137;51.436;6.544;2023-07-16T01:13:16;5.67;;;2.50;;
14116;SDS011;7137;51.436;6.544;2023-07-16T01:16:18;5.27;;;2.20;;
14116;SDS011;7137;51.436;6.544;2023-07-16T01:19:20;6.87;;;2.37;;
14116;SDS011;7137;51.436;6.544;2023-07-16T01:22:35;4.97;;;2.50;;
14116;SDS011;7137;51.436;6.544;2023-07-16T01:25:49;3.73;;;2.20;;
14116;SDS011;7137;51.436;6.544;2023-07-16T01:29:21;4.17;;;2.00;;
14116;SDS011;7137;51.436;6.544;2023-07-16T01:32:33;5.00;;;2.40;;
14116;SDS011;7137;51.436;6.544;2023-07-16T01:35:35;4.60;;;2.30;;
14116;SDS011;7137;51.436;6.544;2023-07-16T01:38:37;6.00;;;2.47;;
14116;SDS011;7137;51.436;6.544;2023-07-16T01:41:38;5.03;;;2.70;;
14116;SDS011;7137;51.436;6.544;2023-07-16T01:44:41;5.07;;;2.67;;
14116;SDS011;7137;51.436;6.544;2023-07-16T01:47:45;5.57;;;2.27;;
14116;SDS011;7137;51.436;6.544;2023-07-16T01:50:55;5.60;;;2.60;;
14116;SDS011;7137;51.436;6.544;2023-07-16T01:53:57;6.63;;;2.70;;
14116;SDS011;7137;51.436;6.544;2023-07-16T01:56:59;6.87;;;2.80;;
14116;SDS011;7137;51.436;6.544;2023-07-16T02:00:02;5.93;;;2.60;;
14116;SDS011;7137;51.436;6.544;2023-07-16T02:03:05;5.73;;;2.53;;
14116;SDS011;7137;51.436;6.544;2023-07-16T02:06:07;6.87;;;2.73;;
14116;SDS011;7137;51.436;6.544;2023-07-16T02:09:09;6.03;;;2.60;;
14116;SDS011;7137;51.436;6.544;2023-07-16T02:12:11;5.10;;;2.57;;
14116;SDS011;7137;51.436;6.544;2023-07-16T02:15:13;5.17;;;2.70;;
14116;SDS011;7137;51.436;6.544;2023-07-16T02:18:15;4.47;;;2.50;;
14116;SDS011;7137;51.436;6.544;2023-07-16T02:21:17;5.87;;;2.63;;
14116;SDS011;7137;51.436;6.544;2023-07-16T02:24:18;6.47;;;2.53;;
14116;SDS011;7137;51.436;6.544;2023-07-16T02:27:20;5.80;;;2.73;;
14116;SDS011;7137;51.436;6.544;2023-07-16T02:30:23;4.87;;;2.77;;
14116;SDS011;7137;51.436;6.544;2023-07-16T02:33:24;5.40;;;2.60;;
14116;SDS011;7137;51.436;6.544;2023-07-16T02:36:26;5.50;;;2.70;;
14116;SDS011;7137;51.436;6.544;2023-07-16T02:39:27;5.07;;;2.63;;
14116;SDS011;7137;51.436;6.544;2023-07-16T02:42:29;5.33;;;2.50;;
14116;SDS011;7137;51.436;6.544;2023-07-16T02:45:32;5.53;;;2.57;;
14116;SDS011;7137;51.436;6.544;2023-07-16T02:48:33;6.33;;;2.80;;
14116;SDS011;7137;51.436;6.544;2023-07-16T02:51:35;5.77;;;2.50;;
14116;SDS011;7137;51.436;6.544;2023-07-16T02:54:37;4.80;;;2.50;;
14116;SDS011;7137;51.436;6.544;2023-07-16T02:57:38;6.60;;;2.37;;
14116;SDS011;7137;51.436;6.544;2023-07-16T03:00:41;5.37;;;2.30;;
14116;SDS011;7137;51.436;6.544;2023-07-16T03:03:43;3.83;;;2.20;;
14116;SDS011;7137;51.436;6.544;2023-07-16T03:06:44;6.10;;;2.23;;
14116;SDS011;7137;51.436;6.544;2023-07-16T03:09:46;5.83;;;2.30;;
14116;SDS011;7137;51.436;6.544;2023-07-16T03:12:47;6.40;;;2.00;;
14116;SDS011;7137;51.436;6.544;2023-07-16T03:15:50;5.23;;;2.57;;
14116;SDS011;7137;51.436;6.544;2023-07-16T03:18:52;5.63;;;2.20;;
14116;SDS011;7137;51.436;6.544;2023-07-16T03:21:54;6.63;;;2.30;;
14116;SDS011;7137;51.436;6.544;2023-07-16T03:24:55;7.53;;;2.40;;
14116;SDS011;7137;51.436;6.544;2023-07-16T03:27:57;4.73;;;2.40;;
14116;SDS011;7137;51.436;6.544;2023-07-16T03:31:01;5.37;;;2.90;;
14116;SDS011;7137;51.436;6.544;2023-07-16T03:34:02;6.23;;;2.50;;
14116;SDS011;7137;51.436;6.544;2023-07-16T03:37:04;7.83;;;2.70;;
14116;SDS011;7137;51.436;6.544;2023-07-16T03:40:13;7.60;;;2.60;;
14116;SDS011;7137;51.436;6.544;2023-07-16T03:43:16;7.00;;;2.40;;
14116;SDS011;7137;51.436;6.544;2023-07-16T03:46:19;8.20;;;2.73;;
14116;SDS011;7137;51.436;6.544;2023-07-16T03:49:21;7.67;;;2.50;;
14116;SDS011;7137;51.436;6.544;2023-07-16T03:52:22;6.23;;;2.60;;
14116;SDS011;7137;51.436;6.544;2023-07-16T03:55:24;7.63;;;2.70;;
14116;SDS011;7137;51.436;6.544;2023-07-16T03:58:26;6.43;;;2.60;;
14116;SDS011;7137;51.436;6.544;2023-07-16T04:01:30;6.63;;;2.80;;
14116;SDS011;7137;51.436;6.544;2023-07-16T04:04:32;6.63;;;2.37;;
14116;SDS011;7137;51.436;6.544;2023-07-16T04:07:34;7.43;;;2.73;;
14116;SDS011;7137;51.436;6.544;2023-07-16T04:10:35;7.50;;;2.80;;
14116;SDS011;7137;51.436;6.544;2023-07-16T04:13:37;7.13;;;2.87;;
14116;SDS011;7137;51.436;6.544;2023-07-16T04:16:40;9.57;;;3.53;;
14116;SDS011;7137;51.436;6.544;2023-07-16T04:19:41;8.90;;;3.67;;
14116;SDS011;7137;51.436;6.544;2023-07-16T04:22:43;6.33;;;3.17;;
14116;SDS011;7137;51.436;6.544;2023-07-16T04:25:44;6.83;;;3.30;;
14116;SDS011;7137;51.436;6.544;2023-07-16T04:28:46;8.90;;;3.20;;
14116;SDS011;7137;51.436;6.544;2023-07-16T04:31:49;8.40;;;2.97;;
14116;SDS011;7137;51.436;6.544;2023-07-16T04:34:51;8.07;;;3.10;;
14116;SDS011;7137;51.436;6.544;2023-07-16T04:37:53;7.43;;;3.30;;
14116;SDS011;7137;51.436;6.544;2023-07-16T04:40:54;8.83;;;3.40;;
14116;SDS011;7137;51.436;6.544;2023-07-16T04:43:56;6.70;;;3.13;;
14116;SDS011;7137;51.436;6.544;2023-07-16T04:46:59;9.20;;;3.27;;
14116;SDS011;7137;51.436;6.544;2023-07-16T04:50:00;9.40;;;2.93;;
14116;SDS011;7137;51.436;6.544;2023-07-16T04:53:02;8.43;;;3.00;;
14116;SDS011;7137;51.436;6.544;2023-07-16T04:56:04;7.87;;;3.57;;
14116;SDS011;7137;51.436;6.544;2023-07-16T04:59:10;10.97;;;3.57;;
14116;SDS011;7137;51.436;6.544;2023-07-16T05:02:13;9.77;;;3.60;;
14116;SDS011;7137;51.436;6.544;2023-07-16T05:05:17;8.53;;;3.57;;
14116;SDS011;7137;51.436;6.544;2023-07-16T05:08:18;8.07;;;3.10;;
14116;SDS011;7137;51.436;6.544;2023-07-16T05:11:20;6.70;;;3.00;;
14116;SDS011;7137;51.436;6.544;2023-07-16T05:14:22;8.33;;;3.00;;
14116;SDS011;7137;51.436;6.544;2023-07-16T05:17:25;10.63;;;3.20;;
14116;SDS011;7137;51.436;6.544;2023-07-16T05:20:26;7.50;;;2.90;;
14116;SDS011;7137;51.436;6.544;2023-07-16T05:23:28;8.10;;;2.90;;
14116;SDS011;7137;51.436;6.544;2023-07-16T05:26:30;6.80;;;2.70;;
14116;SDS011;7137;51.436;6.544;2023-07-16T05:29:33;9.40;;;2.80;;
14116;SDS011;7137;51.436;6.544;2023-07-16T05:32:36;6.57;;;3.00;;
14116;SDS011;7137;51.436;6.544;2023-07-16T05:35:38;7.77;;;2.77;;
14116;SDS011;7137;51.436;6.544;2023-07-16T05:38:40;7.53;;;3.20;;
14116;SDS011;7137;51.436;6.544;2023-07-16T05:41:42;9.57;;;3.07;;
14116;SDS011;7137;51.436;6.544;2023-07-16T05:44:44;8.67;;;3.10;;
14116;SDS011;7137;51.436;6.544;2023-07-16T05:47:50;7.20;;;3.17;;
14116;SDS011;7137;51.436;6.544;2023-07-16T05:50:52;8.83;;;3.20;;
14116;SDS011;7137;51.436;6.544;2023-07-16T05:53:53;9.00;;;3.23;;
14116;SDS011;7137;51.436;6.544;2023-07-16T05:56:55;7.60;;;3.30;;
14116;SDS011;7137;51.436;6.544;2023-07-16T05:59:56;7.90;;;3.17;;
14116;SDS011;7137;51.436;6.544;2023-07-16T06:02:59;8.23;;;3.47;;
14116;SDS011;7137;51.436;6.544;2023-07-16T06:06:01;8.50;;;3.77;;
14116;SDS011;7137;51.436;6.544;2023-07-16T06:09:02;9.30;;;3.40;;
14116;SDS011;7137;51.436;6.544;2023-07-16T06:12:04;6.50;;;3.33;;
14116;SDS011;7137;51.436;6.544;2023-07-16T06:15:07;7.23;;;3.30;;
14116;SDS011;7137;51.436;6.544;2023-07-16T06:18:10;7.87;;;3.17;;
14116;SDS011;7137;51.436;6.544;2023-07-16T06:21:12;6.87;;;3.63;;
14116;SDS011;7137;51.436;6.544;2023-07-16T06:24:13;7.23;;;3.23;;
14116;SDS011;7137;51.436;6.544;2023-07-16T06:27:15;6.60;;;3.83;;
14116;SDS011;7137;51.436;6.544;2023-07-16T06:30:17;9.20;;;3.77;;
14116;SDS011;7137;51.436;6.544;2023-07-16T06:33:20;7.77;;;3.53;;
14116;SDS011;7137;51.436;6.544;2023-07-16T06:36:21;7.33;;;3.63;;
14116;SDS011;7137;51.436;6.544;2023-07-16T06:39:23;6.87;;;3.60;;
14116;SDS011;7137;51.436;6.544;2023-07-16T06:42:24;8.63;;;3.80;;
14116;SDS011;7137;51.436;6.544;2023-07-16T06:45:26;8.43;;;3.60;;
14116;SDS011;7137;51.436;6.544;2023-07-16T06:48:29;7.47;;;3.13;;
14116;SDS011;7137;51.436;6.544;2023-07-16T06:51:30;7.97;;;3.80;;
14116;SDS011;7137;51.436;6.544;2023-07-16T06:54:32;7.43;;;3.47;;
14116;SDS011;7137;51.436;6.544;2023-07-16T06:57:34;7.33;;;3.67;;
14116;SDS011;7137;51.436;6.544;2023-07-16T07:00:36;7.77;;;3.87;;
14116;SDS011;7137;51.436;6.544;2023-07-16T07:03:39;10.00;;;4.10;;
14116;SDS011;7137;51.436;6.544;2023-07-16T07:06:40;8.47;;;4.40;;
14116;SDS011;7137;51.436;6.544;2023-07-16T07:09:42;8.23;;;4.50;;
14116;SDS011;7137;51.436;6.544;2023-07-16T07:12:44;7.43;;;4.30;;
14116;SDS011;7137;51.436;6.544;2023-07-16T07:15:45;8.23;;;3.93;;
14116;SDS011;7137;51.436;6.544;2023-07-16T07:18:48;9.17;;;4.10;;
14116;SDS011;7137;51.436;6.544;2023-07-16T07:21:50;8.60;;;4.47;;
14116;SDS011;7137;51.436;6.544;2023-07-16T07:24:51;6.43;;;4.20;;
14116;SDS011;7137;51.436;6.544;2023-07-16T07:27:53;10.03;;;4.97;;
14116;SDS011;7137;51.436;6.544;2023-07-16T07:30:54;9.67;;;4.70;;
14116;SDS011;7137;51.436;6.544;2023-07-16T07:33:57;8.27;;;4.70;;
14116;SDS011;7137;51.436;6.544;2023-07-16T07:36:59;7.37;;;4.33;;
14116;SDS011;7137;51.436;6.544;2023-07-16T07:40:01;8.30;;;4.40;;
14116;SDS011;7137;51.436;6.544;2023-07-16T07:43:03;8.10;;;4.37;;
14116;SDS011;7137;51.436;6.544;2023-07-16T07:46:05;10.37;;;4.10;;
14116;SDS011;7137;51.436;6.544;2023-07-16T07:49:08;9.27;;;4.07;;
14116;SDS011;7137;51.436;6.544;2023-07-16T07:52:09;6.77;;;3.83;;
14116;SDS011;7137;51.436;6.544;2023-07-16T07:55:11;8.77;;;4.10;;
14116;SDS011;7137;51.436;6.544;2023-07-16T07:58:13;7.87;;;4.60;;
14116;SDS011;7137;51.436;6.544;2023-07-16T08:01:14;7.67;;;3.83;;
14116;SDS011;7137;51.436;6.544;2023-07-16T08:04:17;7.33;;;4.00;;
14116;SDS011;7137;51.436;6.544;2023-07-16T08:07:19;9.23;;;4.40;;
14116;SDS011;7137;51.436;6.544;2023-07-16T08:10:20;9.17;;;4.27;;
14116;SDS011;7137;51.436;6.544;2023-07-16T08:13:22;8.10;;;4.10;;
14116;SDS011;7137;51.436;6.544;2023-07-16T08:16:24;7.70;;;4.13;;
14116;SDS011;7137;51.436;6.544;2023-07-16T08:19:27;6.77;;;4.03;;
14116;SDS011;7137;51.436;6.544;2023-07-16T08:22:28;6.87;;;3.90;;
14116;SDS011;7137;51.436;6.544;2023-07-16T08:25:30;7.10;;;3.63;;
14116;SDS011;7137;51.436;6.544;2023-07-16T08:28:31;7.60;;;3.73;;
14116;SDS011;7137;51.436;6.544;2023-07-16T08:31:33;8.37;;;4.13;;
14116;SDS011;7137;51.436;6.544;2023-07-16T08:34:36;8.60;;;3.93;;
14116;SDS011;7137;51.436;6.544;2023-07-16T08:37:38;7.23;;;3.97;;
14116;SDS011;7137;51.436;6.544;2023-07-16T08:40:39;7.47;;;4.03;;
14116;SDS011;7137;51.436;6.544;2023-07-16T08:43:41;9.50;;;4.00;;
14116;SDS011;7137;51.436;6.544;2023-07-16T08:46:44;7.90;;;3.83;;
14116;SDS011;7137;51.436;6.544;2023-07-16T08:49:49;6.00;;;3.30;;
14116;SDS011;7137;51.436;6.544;2023-07-16T08:52:56;6.63;;;3.53;;
14116;SDS011;7137;51.436;6.544;2023-07-16T08:55:59;7.60;;;3.70;;
14116;SDS011;7137;51.436;6.544;2023-07-16T08:59:02;7.77;;;3.83;;
14116;SDS011;7137;51.436;6.544;2023-07-16T09:02:04;7.97;;;4.27;;
14116;SDS011;7137;51.436;6.544;2023-07-16T09:05:08;6.90;;;3.60;;
14116;SDS011;7137;51.436;6.544;2023-07-16T09:08:10;7.37;;;3.87;;
14116;SDS011;7137;51.436;6.544;2023-07-16T09:11:13;8.67;;;4.00;;
14116;SDS011;7137;51.436;6.544;2023-07-16T09:14:16;6.73;;;3.50;;
14116;SDS011;7137;51.436;6.544;2023-07-16T09:17:19;8.20;;;3.63;;
14116;SDS011;7137;51.436;6.544;2023-07-16T09:20:24;8.07;;;3.70;;
14116;SDS011;7137;51.436;6.544;2023-07-16T09:23:26;6.77;;;3.60;;
14116;SDS011;7137;51.436;6.544;2023-07-16T09:26:28;7.07;;;3.83;;
14116;SDS011;7137;51.436;6.544;2023-07-16T09:29:29;9.57;;;3.80;;
14116;SDS011;7137;51.436;6.544;2023-07-16T09:32:34;6.33;;;3.33;;
14116;SDS011;7137;51.436;6.544;2023-07-16T09:35:37;5.43;;;3.30;;
14116;SDS011;7137;51.436;6.544;2023-07-16T09:38:38;7.07;;;3.40;;
14116;SDS011;7137;51.436;6.544;2023-07-16T09:41:42;6.37;;;3.37;;
14116;SDS011;7137;51.436;6.544;2023-07-16T09:44:44;6.10;;;3.10;;
14116;SDS011;7137;51.436;6.544;2023-07-16T09:47:45;7.57;;;3.50;;
14116;SDS011;7137;51.436;6.544;2023-07-16T09:50:51;6.50;;;3.30;;
14116;SDS011;7137;51.436;6.544;2023-07-16T09:53:54;6.00;;;2.93;;
14116;SDS011;7137;51.436;6.544;2023-07-16T09:56:57;6.73;;;3.10;;
14116;SDS011;7137;51.436;6.544;2023-07-16T10:00:01;7.00;;;3.40;;
14116;SDS011;7137;51.436;6.544;2023-07-16T10:03:07;9.50;;;3.30;;
14116;SDS011;7137;51.436;6.544;2023-07-16T10:06:12;7.67;;;3.47;;
14116;SDS011;7137;51.436;6.544;2023-07-16T10:09:14;7.07;;;3.30;;
14116;SDS011;7137;51.436;6.544;2023-07-16T10:12:16;6.27;;;3.23;;
14116;SDS011;7137;51.436;6.544;2023-07-16T10:15:24;6.03;;;3.57;;
14116;SDS011;7137;51.436;6.544;2023-07-16T10:18:27;6.63;;;3.53;;
14116;SDS011;7137;51.436;6.544;2023-07-16T10:21:36;5.87;;;3.10;;
14116;SDS011;7137;51.436;6.544;2023-07-16T10:24:38;6.07;;;3.50;;
14116;SDS011;7137;51.436;6.544;2023-07-16T10:27:40;6.47;;;3.40;;
14116;SDS011;7137;51.436;6.544;2023-07-16T10:30:41;6.67;;;3.40;;
14116;SDS011;7137;51.436;6.544;2023-07-16T10:33:43;7.07;;;3.53;;
14116;SDS011;7137;51.436;6.544;2023-07-16T10:36:46;8.37;;;3.53;;
14116;SDS011;7137;51.436;6.544;2023-07-16T10:39:48;7.60;;;3.70;;
14116;SDS011;7137;51.436;6.544;2023-07-16T10:42:52;7.20;;;3.23;;
14116;SDS011;7137;51.436;6.544;2023-07-16T10:45:54;8.53;;;3.50;;
14116;SDS011;7137;51.436;6.544;2023-07-16T10:48:56;5.87;;;3.60;;
14116;SDS011;7137;51.436;6.544;2023-07-16T10:51:59;7.40;;;3.70;;
14116;SDS011;7137;51.436;6.544;2023-07-16T10:55:02;6.27;;;3.60;;
14116;SDS011;7137;51.436;6.544;2023-07-16T10:58:04;6.10;;;3.70;;
14116;SDS011;7137;51.436;6.544;2023-07-16T11:01:07;7.73;;;3.57;;
14116;SDS011;7137;51.436;6.544;2023-07-16T11:04:09;6.30;;;3.90;;
14116;SDS011;7137;51.436;6.544;2023-07-16T11:07:13;6.73;;;3.73;;
14116;SDS011;7137;51.436;6.544;2023-07-16T11:10:15;6.80;;;3.43;;
14116;SDS011;7137;51.436;6.544;2023-07-16T11:13:17;6.37;;;3.47;;
14116;SDS011;7137;51.436;6.544;2023-07-16T11:16:19;6.17;;;3.20;;
14116;SDS011;7137;51.436;6.544;2023-07-16T11:19:20;7.20;;;3.43;;
14116;SDS011;7137;51.436;6.544;2023-07-16T11:22:25;7.03;;;3.57;;
14116;SDS011;7137;51.436;6.544;2023-07-16T11:25:28;7.13;;;3.60;;
14116;SDS011;7137;51.436;6.544;2023-07-16T11:28:35;7.80;;;3.40;;
14116;SDS011;7137;51.436;6.544;2023-07-16T11:31:38;6.13;;;3.30;;
14116;SDS011;7137;51.436;6.544;2023-07-16T11:34:53;6.60;;;3.47;;
14116;SDS011;7137;51.436;6.544;2023-07-16T11:37:56;6.57;;;3.33;;
14116;SDS011;7137;51.436;6.544;2023-07-16T11:40:59;5.77;;;2.80;;
14116;SDS011;7137;51.436;6.544;2023-07-16T11:44:01;6.70;;;3.10;;
14116;SDS011;7137;51.436;6.544;2023-07-16T11:47:03;8.30;;;3.30;;
14116;SDS011;7137;51.436;6.544;2023-07-16T11:50:05;6.17;;;3.10;;
14116;SDS011;7137;51.436;6.544;2023-07-16T11:53:09;5.10;;;2.90;;
14116;SDS011;7137;51.436;6.544;2023-07-16T11:56:11;6.90;;;2.80;;
14116;SDS011;7137;51.436;6.544;2023-07-16T11:59:12;6.10;;;2.73;;
14116;SDS011;7137;51.436;6.544;2023-07-16T12:02:14;7.33;;;3.20;;
14116;SDS011;7137;51.436;6.544;2023-07-16T12:05:15;5.37;;;2.60;;
14116;SDS011;7137;51.436;6.544;2023-07-16T12:08:18;4.57;;;2.33;;
14116;SDS011;7137;51.436;6.544;2023-07-16T12:11:20;5.53;;;2.50;;
14116;SDS011;7137;51.436;6.544;2023-07-16T12:14:22;4.67;;;2.53;;
14116;SDS011;7137;51.436;6.544;2023-07-16T12:17:23;6.20;;;2.70;;
14116;SDS011;7137;51.436;6.544;2023-07-16T12:20:25;5.13;;;2.40;;
14116;SDS011;7137;51.436;6.544;2023-07-16T12:23:28;5.03;;;2.60;;
14116;SDS011;7137;51.436;6.544;2023-07-16T12:26:30;5.30;;;2.50;;
14116;SDS011;7137;51.436;6.544;2023-07-16T12:29:31;5.60;;;2.77;;
14116;SDS011;7137;51.436;6.544;2023-07-16T12:32:33;5.80;;;2.53;;
14116;SDS011;7137;51.436;6.544;2023-07-16T12:35:35;5.10;;;2.50;;
14116;SDS011;7137;51.436;6.544;2023-07-16T12:38:38;5.23;;;2.70;;
14116;SDS011;7137;51.436;6.544;2023-07-16T12:41:40;6.23;;;2.60;;
14116;SDS011;7137;51.436;6.544;2023-07-16T12:44:42;4.97;;;2.60;;
14116;SDS011;7137;51.436;6.544;2023-07-16T12:47:44;5.40;;;2.60;;
14116;SDS011;7137;51.436;6.544;2023-07-16T12:50:45;4.57;;;2.57;;
14116;SDS011;7137;51.436;6.544;2023-07-16T12:53:48;5.27;;;2.80;;
14116;SDS011;7137;51.436;6.544;2023-07-16T12:56:50;5.17;;;2.40;;
14116;SDS011;7137;51.436;6.544;2023-07-16T12:59:51;4.97;;;2.60;;
14116;SDS011;7137;51.436;6.544;2023-07-16T13:02:53;4.83;;;2.50;;
14116;SDS011;7137;51.436;6.544;2023-07-16T13:05:54;5.67;;;2.60;;
14116;SDS011;7137;51.436;6.544;2023-07-16T13:08:57;4.67;;;2.40;;
14116;SDS011;7137;51.436;6.544;2023-07-16T13:11:59;4.47;;;2.37;;
14116;SDS011;7137;51.436;6.544;2023-07-16T13:15:01;3.93;;;2.30;;
14116;SDS011;7137;51.436;6.544;2023-07-16T13:18:03;5.40;;;2.83;;
14116;SDS011;7137;51.436;6.544;2023-07-16T13:21:04;5.67;;;2.50;;
14116;SDS011;7137;51.436;6.544;2023-07-16T13:24:07;5.10;;;2.57;;
14116;SDS011;7137;51.436;6.544;2023-07-16T13:27:09;4.30;;;2.30;;
14116;SDS011;7137;51.436;6.544;2023-07-16T13:30:20;4.10;;;2.00;;
14116;SDS011;7137;51.436;6.544;2023-07-16T13:33:21;4.47;;;2.67;;
14116;SDS011;7137;51.436;6.544;2023-07-16T13:36:23;5.43;;;2.57;;
14116;SDS011;7137;51.436;6.544;2023-07-16T13:39:26;4.40;;;2.50;;
14116;SDS011;7137;51.436;6.544;2023-07-16T13:42:28;4.50;;;2.50;;
14116;SDS011;7137;51.436;6.544;2023-07-16T13:45:29;5.97;;;2.10;;
14116;SDS011;7137;51.436;6.544;2023-07-16T13:48:31;4.53;;;2.47;;
14116;SDS011;7137;51.436;6.544;2023-07-16T13:51:32;4.70;;;2.50;;
14116;SDS011;7137;51.436;6.544;2023-07-16T13:54:35;5.23;;;2.57;;
14116;SDS011;7137;51.436;6.544;2023-07-16T13:57:37;4.80;;;2.10;;
14116;SDS011;7137;51.436;6.544;2023-07-16T14:00:38;4.67;;;2.60;;
14116;SDS011;7137;51.436;6.544;2023-07-16T14:03:40;3.83;;;2.10;;
14116;SDS011;7137;51.436;6.544;2023-07-16T14:06:41;4.70;;;2.10;;
14116;SDS011;7137;51.436;6.544;2023-07-16T14:09:44;4.53;;;2.03;;
14116;SDS011;7137;51.436;6.544;2023-07-16T14:12:46;5.00;;;2.00;;
14116;SDS011;7137;51.436;6.544;2023-07-16T14:15:47;3.10;;;2.00;;
14116;SDS011;7137;51.436;6.544;2023-07-16T14:18:50;4.13;;;2.07;;
14116;SDS011;7137;51.436;6.544;2023-07-16T14:21:53;6.37;;;2.40;;
14116;SDS011;7137;51.436;6.544;2023-07-16T14:24:56;4.07;;;2.13;;
14116;SDS011;7137;51.436;6.544;2023-07-16T14:27:58;4.03;;;2.07;;
14116;SDS011;7137;51.436;6.544;2023-07-16T14:30:59;4.53;;;2.23;;
14116;SDS011;7137;51.436;6.544;2023-07-16T14:34:01;4.53;;;2.13;;
14116;SDS011;7137;51.436;6.544;2023-07-16T14:37:03;4.03;;;2.20;;
14116;SDS011;7137;51.436;6.544;2023-07-16T14:40:07;4.27;;;2.40;;
14116;SDS011;7137;51.436;6.544;2023-07-16T14:43:09;4.63;;;2.40;;
14116;SDS011;7137;51.436;6.544;2023-07-16T14:46:11;4.50;;;2.43;;
14116;SDS011;7137;51.436;6.544;2023-07-16T14:49:15;4.73;;;2.40;;
14116;SDS011;7137;51.436;6.544;2023-07-16T14:52:17;4.60;;;2.17;;
14116;SDS011;7137;51.436;6.544;2023-07-16T14:55:21;4.87;;;2.37;;
14116;SDS011;7137;51.436;6.544;2023-07-16T14:58:24;6.17;;;2.60;;
14116;SDS011;7137;51.436;6.544;2023-07-16T15:01:26;4.23;;;2.60;;
14116;SDS011;7137;51.436;6.544;2023-07-16T15:04:27;5.00;;;2.40;;
14116;SDS011;7137;51.436;6.544;2023-07-16T15:07:29;5.17;;;2.70;;
14116;SDS011;7137;51.436;6.544;2023-07-16T15:10:32;5.63;;;2.33;;
14116;SDS011;7137;51.436;6.544;2023-07-16T15:13:34;5.83;;;2.47;;
14116;SDS011;7137;51.436;6.544;2023-07-16T15:16:36;5.60;;;2.70;;
14116;SDS011;7137;51.436;6.544;2023-07-16T15:19:37;4.53;;;2.50;;
14116;SDS011;7137;51.436;6.544;2023-07-16T15:22:39;5.27;;;2.80;;
14116;SDS011;7137;51.436;6.544;2023-07-16T15:25:42;5.70;;;2.70;;
14116;SDS011;7137;51.436;6.544;2023-07-16T15:28:44;5.37;;;2.80;;
14116;SDS011;7137;51.436;6.544;2023-07-16T15:31:45;4.80;;;2.90;;
14116;SDS011;7137;51.436;6.544;2023-07-16T15:34:47;6.03;;;2.67;;
14116;SDS011;7137;51.436;6.544;2023-07-16T15:37:48;5.13;;;2.60;;
14116;SDS011;7137;51.436;6.544;2023-07-16T15:40:51;5.73;;;2.90;;
14116;SDS011;7137;51.436;6.544;2023-07-16T15:43:53;6.20;;;2.90;;
14116;SDS011;7137;51.436;6.544;2023-07-16T15:46:55;6.63;;;2.80;;
14116;SDS011;7137;51.436;6.544;2023-07-16T15:49:57;6.43;;;3.00;;
14116;SDS011;7137;51.436;6.544;2023-07-16T15:52:59;5.97;;;2.90;;
14116;SDS011;7137;51.436;6.544;2023-07-16T15:56:02;6.37;;;2.77;;
14116;SDS011;7137;51.436;6.544;2023-07-16T15:59:04;5.10;;;2.70;;
14116;SDS011;7137;51.436;6.544;2023-07-16T16:02:05;6.07;;;2.90;;
14116;SDS011;7137;51.436;6.544;2023-07-16T16:05:07;7.17;;;3.07;;
14116;SDS011;7137;51.436;6.544;2023-07-16T16:08:10;9.10;;;3.30;;
14116;SDS011;7137;51.436;6.544;2023-07-16T16:11:15;8.87;;;3.07;;
14116;SDS011;7137;51.436;6.544;2023-07-16T16:14:16;6.70;;;2.70;;
14116;SDS011;7137;51.436;6.544;2023-07-16T16:17:18;7.87;;;2.90;;
14116;SDS011;7137;51.436;6.544;2023-07-16T16:20:19;6.97;;;2.80;;
14116;SDS011;7137;51.436;6.544;2023-07-16T16:23:21;5.03;;;2.70;;
14116;SDS011;7137;51.436;6.544;2023-07-16T16:26:24;8.23;;;2.83;;
14116;SDS011;7137;51.436;6.544;2023-07-16T16:29:25;4.27;;;2.70;;
14116;SDS011;7137;51.436;6.544;2023-07-16T16:32:27;9.43;;;3.13;;
14116;SDS011;7137;51.436;6.544;2023-07-16T16:35:30;5.90;;;3.30;;
14116;SDS011;7137;51.436;6.544;2023-07-16T16:38:33;7.27;;;3.00;;
14116;SDS011;7137;51.436;6.544;2023-07-16T16:41:36;6.30;;;3.07;;
14116;SDS011;7137;51.436;6.544;2023-07-16T16:44:38;6.37;;;2.90;;
14116;SDS011;7137;51.436;6.544;2023-07-16T16:47:39;5.97;;;3.00;;
14116;SDS011;7137;51.436;6.544;2023-07-16T16:50:41;7.30;;;3.00;;
14116;SDS011;7137;51.436;6.544;2023-07-16T16:53:43;5.93;;;2.67;;
14116;SDS011;7137;51.436;6.544;2023-07-16T16:56:46;13.23;;;3.27;;
14116;SDS011;7137;51.436;6.544;2023-07-16T16:59:48;8.40;;;2.97;;
14116;SDS011;7137;51.436;6.544;2023-07-16T17:02:50;6.53;;;2.80;;
14116;SDS011;7137;51.436;6.544;2023-07-16T17:05:52;6.73;;;3.20;;
14116;SDS011;7137;51.436;6.544;2023-07-16T17:08:56;7.57;;;3.30;;
14116;SDS011;7137;51.436;6.544;2023-07-16T17:11:58;8.40;;;3.23;;
14116;SDS011;7137;51.436;6.544;2023-07-16T17:15:00;7.50;;;2.90;;
14116;SDS011;7137;51.436;6.544;2023-07-16T17:18:02;5.73;;;2.90;;
14116;SDS011;7137;51.436;6.544;2023-07-16T17:21:04;5.73;;;2.80;;
14116;SDS011;7137;51.436;6.544;2023-07-16T17:24:06;6.03;;;2.93;;
14116;SDS011;7137;51.436;6.544;2023-07-16T17:27:10;6.03;;;3.00;;
14116;SDS011;7137;51.436;6.544;2023-07-16T17:30:16;5.53;;;3.07;;
14116;SDS011;7137;51.436;6.544;2023-07-16T17:33:18;5.47;;;2.60;;
14116;SDS011;7137;51.436;6.544;2023-07-16T17:36:19;7.67;;;3.17;;
14116;SDS011;7137;51.436;6.544;2023-07-16T17:39:22;5.90;;;3.17;;
14116;SDS011;7137;51.436;6.544;2023-07-16T17:42:25;6.90;;;3.10;;
14116;SDS011;7137;51.436;6.544;2023-07-16T17:45:27;6.07;;;3.00;;
14116;SDS011;7137;51.436;6.544;2023-07-16T17:48:28;7.33;;;3.10;;
14116;SDS011;7137;51.436;6.544;2023-07-16T17:51:30;5.37;;;2.80;;
14116;SDS011;7137;51.436;6.544;2023-07-16T17:54:31;5.80;;;2.97;;
14116;SDS011;7137;51.436;6.544;2023-07-16T17:57:34;6.43;;;3.13;;
14116;SDS011;7137;51.436;6.544;2023-07-16T18:00:36;7.00;;;2.80;;
14116;SDS011;7137;51.436;6.544;2023-07-16T18:03:38;6.10;;;2.90;;
14116;SDS011;7137;51.436;6.544;2023-07-16T18:06:39;6.67;;;2.93;;
14116;SDS011;7137;51.436;6.544;2023-07-16T18:09:41;5.93;;;3.13;;
14116;SDS011;7137;51.436;6.544;2023-07-16T18:12:44;5.20;;;2.90;;
14116;SDS011;7137;51.436;6.544;2023-07-16T18:15:45;6.00;;;3.03;;
14116;SDS011;7137;51.436;6.544;2023-07-16T18:18:47;5.70;;;3.27;;
14116;SDS011;7137;51.436;6.544;2023-07-16T18:21:49;6.50;;;3.03;;
14116;SDS011;7137;51.436;6.544;2023-07-16T18:24:50;7.53;;;3.30;;
14116;SDS011;7137;51.436;6.544;2023-07-16T18:27:53;7.33;;;3.07;;
14116;SDS011;7137;51.436;6.544;2023-07-16T18:30:57;6.00;;;3.20;;
14116;SDS011;7137;51.436;6.544;2023-07-16T18:33:59;7.53;;;3.57;;